createdAt,value
2023-02-19T00:00:14.318Z,1025.84
2023-02-19T00:00:45.281Z,1025.85
2023-02-19T00:01:16.167Z,1025.83
2023-02-19T00:01:47.100Z,1025.85
2023-02-19T00:02:18.007Z,1025.82
2023-02-19T00:02:48.928Z,1025.84
2023-02-19T00:03:19.889Z,1025.84
2023-02-19T00:03:50.950Z,1025.80
2023-02-19T00:04:21.432Z,1025.87
2023-02-19T00:04:52.384Z,1025.86
2023-02-19T00:05:23.326Z,1025.83
2023-02-19T00:05:54.266Z,1025.83
2023-02-19T00:06:25.237Z,1025.82
2023-02-19T00:06:56.148Z,1025.81
2023-02-19T00:07:26.655Z,1025.79
2023-02-19T00:07:57.602Z,1025.78
2023-02-19T00:08:28.540Z,1025.77
2023-02-19T00:08:59.458Z,1025.76
2023-02-19T00:09:30.365Z,1025.74
2023-02-19T00:10:01.333Z,1025.74
2023-02-19T00:10:32.220Z,1025.75
2023-02-19T00:11:03.183Z,1025.79
2023-02-19T00:11:34.110Z,1025.79
2023-02-19T00:12:05.019Z,1025.74
2023-02-19T00:12:35.975Z,1025.73
2023-02-19T00:13:06.865Z,1025.73
2023-02-19T00:13:37.804Z,1025.72
2023-02-19T00:14:08.740Z,1025.74
2023-02-19T00:14:39.668Z,1025.71
2023-02-19T00:15:10.576Z,1025.71
2023-02-19T00:15:41.501Z,1025.73
2023-02-19T00:16:12.430Z,1025.71
2023-02-19T00:16:43.336Z,1025.72
2023-02-19T00:17:14.243Z,1025.66
2023-02-19T00:17:45.189Z,1025.68
2023-02-19T00:18:16.079Z,1025.62
2023-02-19T00:18:46.966Z,1025.66
2023-02-19T00:19:17.877Z,1025.64
2023-02-19T00:19:48.798Z,1025.63
2023-02-19T00:20:19.715Z,1025.63
2023-02-19T00:20:50.664Z,1025.61
2023-02-19T00:21:21.588Z,1025.59
2023-02-19T00:21:52.548Z,1025.58
2023-02-19T00:22:23.436Z,1025.58
2023-02-19T00:22:54.378Z,1025.59
2023-02-19T00:23:25.293Z,1025.56
2023-02-19T00:23:56.404Z,1025.56
2023-02-19T00:24:26.860Z,1025.56
2023-02-19T00:24:57.802Z,1025.57
2023-02-19T00:25:28.721Z,1025.51
2023-02-19T00:26:12.295Z,1025.53
2023-02-19T00:26:30.470Z,1025.53
2023-02-19T00:27:01.366Z,1025.54
2023-02-19T00:27:32.302Z,1025.53
2023-02-19T00:28:03.257Z,1025.51
2023-02-19T00:28:34.160Z,1025.51
2023-02-19T00:29:05.075Z,1025.50
2023-02-19T00:29:35.976Z,1025.51
2023-02-19T00:30:06.922Z,1025.52
2023-02-19T00:30:37.825Z,1025.50
2023-02-19T00:31:09.525Z,1025.50
2023-02-19T00:31:39.853Z,1025.48
2023-02-19T00:32:10.292Z,1025.49
2023-02-19T00:32:41.205Z,1025.48
2023-02-19T00:33:12.133Z,1025.48
2023-02-19T00:33:43.080Z,1025.50
2023-02-19T00:34:14.000Z,1025.48
2023-02-19T00:34:44.912Z,1025.49
2023-02-19T00:35:15.908Z,1025.48
2023-02-19T00:36:17.710Z,1025.47
2023-02-19T00:36:48.644Z,1025.48
2023-02-19T00:37:19.583Z,1025.48
2023-02-19T00:37:50.474Z,1025.47
2023-02-19T00:38:21.362Z,1025.48
2023-02-19T00:38:52.289Z,1025.49
2023-02-19T00:39:23.208Z,1025.48
2023-02-19T00:39:54.152Z,1025.48
2023-02-19T00:40:25.080Z,1025.48
2023-02-19T00:40:56.011Z,1025.46
2023-02-19T00:41:26.930Z,1025.47
2023-02-19T00:41:57.861Z,1025.50
2023-02-19T00:42:28.786Z,1025.46
2023-02-19T00:42:59.701Z,1025.50
2023-02-19T00:43:30.624Z,1025.50
2023-02-19T00:44:01.578Z,1025.55
2023-02-19T00:44:32.494Z,1025.52
2023-02-19T00:45:03.404Z,1025.52
2023-02-19T00:45:34.335Z,1025.53
2023-02-19T00:46:05.259Z,1025.54
2023-02-19T00:46:36.321Z,1025.50
2023-02-19T00:47:06.787Z,1025.48
2023-02-19T00:47:39.407Z,1025.50
2023-02-19T00:48:08.318Z,1025.50
2023-02-19T00:48:39.252Z,1025.49
2023-02-19T00:49:10.153Z,1025.50
2023-02-19T00:49:41.035Z,1025.50
2023-02-19T00:50:11.956Z,1025.50
2023-02-19T00:50:42.869Z,1025.51
2023-02-19T00:51:13.800Z,1025.51
2023-02-19T00:51:44.755Z,1025.50
2023-02-19T00:52:15.666Z,1025.51
2023-02-19T00:52:46.605Z,1025.51
2023-02-19T00:53:17.493Z,1025.52
2023-02-19T00:53:48.421Z,1025.47
2023-02-19T00:54:19.353Z,1025.46
2023-02-19T00:54:50.280Z,1025.48
2023-02-19T00:55:21.208Z,1025.51
2023-02-19T00:55:52.124Z,1025.49
2023-02-19T00:56:23.116Z,1025.52
2023-02-19T00:56:54.067Z,1025.46
2023-02-19T00:57:24.960Z,1025.47
2023-02-19T00:57:55.854Z,1025.49
2023-02-19T00:58:57.722Z,1025.44
2023-02-19T00:59:28.652Z,1025.43
2023-02-19T00:59:59.614Z,1025.47
2023-02-19T01:00:30.503Z,1025.40
2023-02-19T01:01:01.446Z,1025.41
2023-02-19T01:01:32.435Z,1025.40
2023-02-19T01:02:03.355Z,1025.43
2023-02-19T01:02:34.291Z,1025.42
2023-02-19T01:03:05.184Z,1025.40
2023-02-19T01:03:36.131Z,1025.41
2023-02-19T01:04:07.392Z,1025.42
2023-02-19T01:04:37.856Z,1025.42
2023-02-19T01:05:08.774Z,1025.36
2023-02-19T01:05:39.691Z,1025.39
2023-02-19T01:06:10.588Z,1025.39
2023-02-19T01:06:41.500Z,1025.38
2023-02-19T01:07:12.435Z,1025.36
2023-02-19T01:07:43.371Z,1025.35
2023-02-19T01:08:14.330Z,1025.39
2023-02-19T01:08:45.224Z,1025.34
2023-02-19T01:09:16.150Z,1025.36
2023-02-19T01:09:47.090Z,1025.39
2023-02-19T01:10:18.009Z,1025.40
2023-02-19T01:10:48.945Z,1025.38
2023-02-19T01:11:19.843Z,1025.37
2023-02-19T01:11:50.785Z,1025.32
2023-02-19T01:12:21.687Z,1025.34
2023-02-19T01:12:52.611Z,1025.32
2023-02-19T01:13:23.538Z,1025.31
2023-02-19T01:13:54.471Z,1025.30
2023-02-19T01:14:25.390Z,1025.29
2023-02-19T01:14:56.329Z,1025.31
2023-02-19T01:15:27.280Z,1025.28
2023-02-19T01:15:58.257Z,1025.33
2023-02-19T01:16:29.220Z,1025.29
2023-02-19T01:17:00.205Z,1025.27
2023-02-19T01:17:30.651Z,1025.29
2023-02-19T01:18:01.558Z,1025.25
2023-02-19T01:18:32.494Z,1025.27
2023-02-19T01:19:03.446Z,1025.23
2023-02-19T01:19:34.385Z,1025.24
2023-02-19T01:20:05.278Z,1025.25
2023-02-19T01:21:07.397Z,1025.20
2023-02-19T01:21:37.954Z,1025.23
2023-02-19T01:22:08.857Z,1025.22
2023-02-19T01:22:39.780Z,1025.22
2023-02-19T01:23:10.713Z,1025.23
2023-02-19T01:23:41.637Z,1025.23
2023-02-19T01:24:12.545Z,1025.23
2023-02-19T01:24:43.472Z,1025.21
2023-02-19T01:25:14.381Z,1025.21
2023-02-19T01:25:45.284Z,1025.21
2023-02-19T01:26:16.228Z,1025.19
2023-02-19T01:26:47.165Z,1025.18
2023-02-19T01:27:18.072Z,1025.18
2023-02-19T01:27:49.012Z,1025.14
2023-02-19T01:28:19.920Z,1025.12
2023-02-19T01:28:50.888Z,1025.19
2023-02-19T01:29:21.810Z,1025.15
2023-02-19T01:29:52.734Z,1025.11
2023-02-19T01:30:23.741Z,1025.16
2023-02-19T01:30:54.836Z,1025.16
2023-02-19T01:31:25.435Z,1025.14
2023-02-19T01:31:55.987Z,1025.14
2023-02-19T01:32:26.436Z,1025.12
2023-02-19T01:32:57.381Z,1025.12
2023-02-19T01:33:28.277Z,1025.14
2023-02-19T01:33:59.276Z,1025.12
2023-02-19T01:34:30.158Z,1025.13
2023-02-19T01:35:01.107Z,1025.12
2023-02-19T01:35:31.992Z,1025.17
2023-02-19T01:36:02.908Z,1025.15
2023-02-19T01:36:33.861Z,1025.16
2023-02-19T01:37:04.784Z,1025.13
2023-02-19T01:37:35.711Z,1025.14
2023-02-19T01:38:37.655Z,1025.11
2023-02-19T01:39:08.742Z,1025.10
2023-02-19T01:39:39.131Z,1025.13
2023-02-19T01:40:10.044Z,1025.12
2023-02-19T01:40:40.960Z,1025.14
2023-02-19T01:41:12.291Z,1025.17
2023-02-19T01:41:42.808Z,1025.12
2023-02-19T01:42:13.731Z,1025.10
2023-02-19T01:42:44.632Z,1025.09
2023-02-19T01:43:15.559Z,1025.10
2023-02-19T01:43:46.484Z,1025.10
2023-02-19T01:44:17.396Z,1025.09
2023-02-19T01:44:48.277Z,1025.02
2023-02-19T01:45:19.217Z,1025.02
2023-02-19T01:45:50.144Z,1025.04
2023-02-19T01:46:21.162Z,1025.01
2023-02-19T01:46:51.666Z,1025.01
2023-02-19T01:47:22.097Z,1025.03
2023-02-19T01:47:53.009Z,1025.02
2023-02-19T01:48:23.904Z,1025.01
2023-02-19T01:48:54.812Z,1024.99
2023-02-19T01:49:25.769Z,1024.99
2023-02-19T01:49:56.698Z,1024.98
2023-02-19T01:50:27.620Z,1024.94
2023-02-19T01:50:58.676Z,1025.00
2023-02-19T01:51:29.126Z,1024.99
2023-02-19T01:52:00.050Z,1024.99
2023-02-19T01:52:30.983Z,1025.02
2023-02-19T01:53:01.898Z,1024.96
2023-02-19T01:53:32.991Z,1025.01
2023-02-19T01:54:03.400Z,1024.92
2023-02-19T01:54:34.340Z,1025.04
2023-02-19T01:55:05.254Z,1024.97
2023-02-19T01:55:36.178Z,1024.95
2023-02-19T01:56:37.579Z,1025.00
2023-02-19T01:57:08.553Z,1024.97
2023-02-19T01:57:39.454Z,1025.02
2023-02-19T01:58:10.368Z,1025.06
2023-02-19T01:58:41.278Z,1025.00
2023-02-19T01:59:12.178Z,1025.00
2023-02-19T01:59:43.067Z,1025.03
2023-02-19T02:00:13.962Z,1024.97
2023-02-19T02:00:44.925Z,1025.01
2023-02-19T02:01:15.916Z,1025.04
2023-02-19T02:01:46.845Z,1025.05
2023-02-19T02:02:17.843Z,1025.07
2023-02-19T02:02:48.746Z,1025.07
2023-02-19T02:03:19.654Z,1025.01
2023-02-19T02:03:50.592Z,1025.04
2023-02-19T02:04:21.529Z,1025.04
2023-02-19T02:04:52.445Z,1024.97
2023-02-19T02:05:23.393Z,1024.98
2023-02-19T02:05:54.324Z,1025.00
2023-02-19T02:06:25.240Z,1024.98
2023-02-19T02:06:56.170Z,1024.97
2023-02-19T02:07:27.104Z,1024.98
2023-02-19T02:07:58.070Z,1024.90
2023-02-19T02:08:28.973Z,1024.92
2023-02-19T02:08:59.458Z,1024.91
2023-02-19T02:09:30.385Z,1024.90
2023-02-19T02:10:01.335Z,1024.90
2023-02-19T02:10:32.279Z,1024.89
2023-02-19T02:11:03.168Z,1024.90
2023-02-19T02:11:34.095Z,1024.85
2023-02-19T02:12:05.035Z,1024.78
2023-02-19T02:12:35.973Z,1024.75
2023-02-19T02:13:06.874Z,1024.78
2023-02-19T02:13:37.793Z,1024.81
2023-02-19T02:14:08.729Z,1024.80
2023-02-19T02:14:39.688Z,1024.77
2023-02-19T02:15:10.631Z,1024.72
2023-02-19T02:15:41.556Z,1024.77
2023-02-19T02:16:12.509Z,1024.75
2023-02-19T02:16:43.431Z,1024.73
2023-02-19T02:17:14.359Z,1024.74
2023-02-19T02:17:45.266Z,1024.69
2023-02-19T02:18:16.181Z,1024.63
2023-02-19T02:18:47.110Z,1024.62
2023-02-19T02:19:18.038Z,1024.65
2023-02-19T02:19:48.937Z,1024.59
2023-02-19T02:20:19.854Z,1024.57
2023-02-19T02:20:50.797Z,1024.59
2023-02-19T02:21:21.778Z,1024.57
2023-02-19T02:21:52.663Z,1024.61
2023-02-19T02:22:23.550Z,1024.54
2023-02-19T02:22:54.491Z,1024.54
2023-02-19T02:23:25.404Z,1024.58
2023-02-19T02:23:56.416Z,1024.58
2023-02-19T02:24:26.854Z,1024.61
2023-02-19T02:24:57.818Z,1024.66
2023-02-19T02:25:28.771Z,1024.66
2023-02-19T02:25:59.701Z,1024.65
2023-02-19T02:26:30.618Z,1024.63
2023-02-19T02:27:01.514Z,1024.63
2023-02-19T02:27:32.420Z,1024.63
2023-02-19T02:28:03.344Z,1024.62
2023-02-19T02:28:34.265Z,1024.56
2023-02-19T02:29:05.182Z,1024.59
2023-02-19T02:29:36.077Z,1024.57
2023-02-19T02:30:07.034Z,1024.58
2023-02-19T02:30:37.975Z,1024.56
2023-02-19T02:31:09.340Z,1024.50
2023-02-19T02:31:39.670Z,1024.49
2023-02-19T02:32:10.301Z,1024.48
2023-02-19T02:32:40.751Z,1024.51
2023-02-19T02:33:11.713Z,1024.50
2023-02-19T02:33:42.629Z,1024.51
2023-02-19T02:34:13.540Z,1024.52
2023-02-19T02:34:44.462Z,1024.55
2023-02-19T02:35:15.387Z,1024.57
2023-02-19T02:35:46.318Z,1024.52
2023-02-19T02:36:17.226Z,1024.53
2023-02-19T02:36:48.133Z,1024.53
2023-02-19T02:37:19.062Z,1024.54
2023-02-19T02:37:49.990Z,1024.53
2023-02-19T02:38:20.908Z,1024.47
2023-02-19T02:38:51.838Z,1024.47
2023-02-19T02:39:22.750Z,1024.51
2023-02-19T02:39:53.654Z,1024.46
2023-02-19T02:40:24.586Z,1024.51
2023-02-19T02:41:26.455Z,1024.48
2023-02-19T02:41:57.340Z,1024.50
2023-02-19T02:42:28.252Z,1024.48
2023-02-19T02:42:59.931Z,1024.49
2023-02-19T02:43:29.891Z,1024.51
2023-02-19T02:44:00.802Z,1024.46
2023-02-19T02:44:31.718Z,1024.46
2023-02-19T02:45:02.634Z,1024.48
2023-02-19T02:45:33.595Z,1024.42
2023-02-19T02:46:04.555Z,1024.43
2023-02-19T02:46:35.499Z,1024.39
2023-02-19T02:47:06.430Z,1024.40
2023-02-19T02:47:37.326Z,1024.38
2023-02-19T02:48:08.257Z,1024.39
2023-02-19T02:48:39.188Z,1024.36
2023-02-19T02:49:10.101Z,1024.42
2023-02-19T02:49:41.054Z,1024.38
2023-02-19T02:50:12.003Z,1024.39
2023-02-19T02:50:43.926Z,1024.37
2023-02-19T02:51:13.852Z,1024.34
2023-02-19T02:51:44.778Z,1024.38
2023-02-19T02:52:15.689Z,1024.34
2023-02-19T02:52:46.599Z,1024.38
2023-02-19T02:53:17.510Z,1024.35
2023-02-19T02:53:48.437Z,1024.28
2023-02-19T02:54:19.351Z,1024.25
2023-02-19T02:54:50.280Z,1024.21
2023-02-19T02:55:21.195Z,1024.20
2023-02-19T02:55:52.084Z,1024.16
2023-02-19T02:56:22.999Z,1024.13
2023-02-19T02:56:53.900Z,1024.21
2023-02-19T02:57:24.832Z,1024.06
2023-02-19T02:57:55.752Z,1024.04
2023-02-19T02:58:57.648Z,1024.06
2023-02-19T02:59:28.572Z,1024.11
2023-02-19T02:59:59.497Z,1024.10
2023-02-19T03:00:30.436Z,1024.10
2023-02-19T03:01:01.366Z,1024.15
2023-02-19T03:01:32.254Z,1024.17
2023-02-19T03:02:03.197Z,1024.20
2023-02-19T03:02:34.146Z,1024.25
2023-02-19T03:03:05.088Z,1024.24
2023-02-19T03:03:36.025Z,1024.25
2023-02-19T03:04:06.927Z,1024.25
2023-02-19T03:04:37.871Z,1024.21
2023-02-19T03:05:08.764Z,1024.22
2023-02-19T03:05:39.677Z,1024.25
2023-02-19T03:06:10.598Z,1024.23
2023-02-19T03:06:41.522Z,1024.23
2023-02-19T03:07:12.453Z,1024.22
2023-02-19T03:07:43.361Z,1024.19
2023-02-19T03:08:14.295Z,1024.17
2023-02-19T03:08:45.204Z,1024.20
2023-02-19T03:09:16.135Z,1024.17
2023-02-19T03:09:49.403Z,1024.21
2023-02-19T03:10:17.560Z,1024.19
2023-02-19T03:10:48.455Z,1024.14
2023-02-19T03:11:19.405Z,1024.16
2023-02-19T03:11:50.323Z,1024.20
2023-02-19T03:12:21.237Z,1024.20
2023-02-19T03:12:52.152Z,1024.16
2023-02-19T03:13:23.061Z,1024.23
2023-02-19T03:13:53.966Z,1024.24
2023-02-19T03:14:24.901Z,1024.25
2023-02-19T03:14:55.792Z,1024.26
2023-02-19T03:15:26.711Z,1024.27
2023-02-19T03:15:57.669Z,1024.23
2023-02-19T03:16:28.668Z,1024.20
2023-02-19T03:16:59.580Z,1024.19
2023-02-19T03:17:30.504Z,1024.21
2023-02-19T03:18:01.416Z,1024.23
2023-02-19T03:18:32.350Z,1024.20
2023-02-19T03:19:03.234Z,1024.21
2023-02-19T03:19:34.171Z,1024.22
2023-02-19T03:20:05.116Z,1024.19
2023-02-19T03:20:36.011Z,1024.18
2023-02-19T03:21:06.939Z,1024.18
2023-02-19T03:21:37.847Z,1024.14
2023-02-19T03:22:08.777Z,1024.16
2023-02-19T03:22:39.745Z,1024.09
2023-02-19T03:23:10.663Z,1024.11
2023-02-19T03:23:41.586Z,1024.14
2023-02-19T03:24:12.508Z,1024.09
2023-02-19T03:24:43.425Z,1024.11
2023-02-19T03:25:14.373Z,1024.10
2023-02-19T03:25:45.303Z,1024.06
2023-02-19T03:26:16.220Z,1024.05
2023-02-19T03:26:47.130Z,1023.99
2023-02-19T03:27:18.060Z,1024.01
2023-02-19T03:27:49.003Z,1023.98
2023-02-19T03:28:19.920Z,1024.02
2023-02-19T03:28:50.830Z,1024.00
2023-02-19T03:29:21.761Z,1024.04
2023-02-19T03:29:52.674Z,1024.10
2023-02-19T03:30:23.634Z,1024.04
2023-02-19T03:30:54.570Z,1024.03
2023-02-19T03:31:25.608Z,1024.07
2023-02-19T03:31:56.162Z,1024.07
2023-02-19T03:32:26.646Z,1024.08
2023-02-19T03:32:57.560Z,1024.02
2023-02-19T03:33:28.446Z,1024.04
2023-02-19T03:33:59.338Z,1024.01
2023-02-19T03:34:30.266Z,1023.97
2023-02-19T03:35:01.220Z,1023.99
2023-02-19T03:35:32.150Z,1023.98
2023-02-19T03:36:03.060Z,1023.99
2023-02-19T03:36:33.977Z,1024.00
2023-02-19T03:37:04.945Z,1024.04
2023-02-19T03:37:35.888Z,1024.03
2023-02-19T03:38:06.778Z,1024.04
2023-02-19T03:38:37.697Z,1024.11
2023-02-19T03:39:08.618Z,1024.07
2023-02-19T03:39:39.531Z,1024.09
2023-02-19T03:40:10.471Z,1024.16
2023-02-19T03:40:41.393Z,1024.07
2023-02-19T03:41:12.493Z,1024.12
2023-02-19T03:41:42.974Z,1024.11
2023-02-19T03:42:13.877Z,1024.10
2023-02-19T03:42:44.829Z,1024.09
2023-02-19T03:43:15.786Z,1024.09
2023-02-19T03:43:46.703Z,1024.04
2023-02-19T03:44:17.641Z,1024.05
2023-02-19T03:44:48.588Z,1024.11
2023-02-19T03:45:19.481Z,1024.02
2023-02-19T03:45:50.410Z,1024.02
2023-02-19T03:46:21.326Z,1023.97
2023-02-19T03:46:52.292Z,1023.99
2023-02-19T03:47:23.200Z,1023.96
2023-02-19T03:47:54.108Z,1023.91
2023-02-19T03:48:25.030Z,1023.93
2023-02-19T03:48:55.975Z,1023.87
2023-02-19T03:49:26.895Z,1023.94
2023-02-19T03:49:57.801Z,1023.88
2023-02-19T03:50:28.692Z,1023.90
2023-02-19T03:50:59.643Z,1023.89
2023-02-19T03:51:30.564Z,1023.87
2023-02-19T03:52:01.513Z,1023.92
2023-02-19T03:52:32.418Z,1023.92
2023-02-19T03:53:03.322Z,1024.00
2023-02-19T03:53:34.245Z,1023.95
2023-02-19T03:54:05.146Z,1023.98
2023-02-19T03:54:36.054Z,1023.98
2023-02-19T03:55:06.952Z,1023.92
2023-02-19T03:55:37.850Z,1023.93
2023-02-19T03:56:08.751Z,1023.99
2023-02-19T03:56:39.731Z,1023.92
2023-02-19T03:57:10.648Z,1023.98
2023-02-19T03:57:41.585Z,1023.98
2023-02-19T03:58:12.529Z,1023.92
2023-02-19T03:58:43.450Z,1023.89
2023-02-19T03:59:14.378Z,1023.86
2023-02-19T03:59:45.289Z,1023.86
2023-02-19T04:00:16.210Z,1023.92
2023-02-19T04:00:47.114Z,1023.89
2023-02-19T04:01:18.044Z,1023.89
2023-02-19T04:01:48.963Z,1023.83
2023-02-19T04:02:19.936Z,1023.82
2023-02-19T04:02:50.383Z,1023.88
2023-02-19T04:03:21.270Z,1023.79
2023-02-19T04:03:52.306Z,1023.85
2023-02-19T04:04:23.281Z,1023.83
2023-02-19T04:04:54.237Z,1023.83
2023-02-19T04:05:25.200Z,1023.91
2023-02-19T04:05:56.128Z,1023.87
2023-02-19T04:06:27.062Z,1023.92
2023-02-19T04:06:57.959Z,1023.90
2023-02-19T04:07:28.872Z,1023.89
2023-02-19T04:07:59.781Z,1023.89
2023-02-19T04:08:30.712Z,1023.92
2023-02-19T04:09:01.602Z,1023.95
2023-02-19T04:09:32.505Z,1023.88
2023-02-19T04:10:03.492Z,1023.94
2023-02-19T04:10:34.386Z,1023.94
2023-02-19T04:11:05.297Z,1023.92
2023-02-19T04:11:36.202Z,1023.94
2023-02-19T04:12:07.141Z,1023.97
2023-02-19T04:12:38.028Z,1023.95
2023-02-19T04:13:08.953Z,1023.96
2023-02-19T04:13:39.865Z,1023.96
2023-02-19T04:14:10.819Z,1023.91
2023-02-19T04:14:41.741Z,1023.90
2023-02-19T04:15:12.656Z,1023.93
2023-02-19T04:15:43.577Z,1023.94
2023-02-19T04:16:14.522Z,1023.97
2023-02-19T04:16:45.536Z,1023.97
2023-02-19T04:17:15.981Z,1023.97
2023-02-19T04:17:46.902Z,1023.96
2023-02-19T04:18:17.840Z,1023.98
2023-02-19T04:18:48.758Z,1023.96
2023-02-19T04:19:19.686Z,1023.93
2023-02-19T04:19:50.586Z,1023.97
2023-02-19T04:20:21.494Z,1024.01
2023-02-19T04:20:52.484Z,1024.01
2023-02-19T04:21:23.391Z,1023.98
2023-02-19T04:21:54.305Z,1024.06
2023-02-19T04:22:25.243Z,1024.04
2023-02-19T04:23:27.131Z,1024.04
2023-02-19T04:23:58.038Z,1024.08
2023-02-19T04:24:28.946Z,1024.09
2023-02-19T04:24:59.893Z,1024.06
2023-02-19T04:25:30.805Z,1024.09
2023-02-19T04:26:01.854Z,1024.08
2023-02-19T04:26:32.279Z,1024.14
2023-02-19T04:27:03.209Z,1024.12
2023-02-19T04:27:34.148Z,1024.08
2023-02-19T04:28:05.061Z,1024.14
2023-02-19T04:28:35.982Z,1024.11
2023-02-19T04:29:06.914Z,1024.15
2023-02-19T04:29:39.261Z,1024.16
2023-02-19T04:30:08.869Z,1024.15
2023-02-19T04:30:39.950Z,1024.14
2023-02-19T04:31:10.765Z,1024.17
2023-02-19T04:31:41.390Z,1024.18
2023-02-19T04:32:12.316Z,1024.23
2023-02-19T04:32:43.213Z,1024.19
2023-02-19T04:33:14.115Z,1024.22
2023-02-19T04:33:45.036Z,1024.30
2023-02-19T04:34:15.948Z,1024.23
2023-02-19T04:34:46.867Z,1024.22
2023-02-19T04:35:17.786Z,1024.23
2023-02-19T04:35:48.681Z,1024.27
2023-02-19T04:36:19.589Z,1024.26
2023-02-19T04:36:50.504Z,1024.26
2023-02-19T04:37:21.439Z,1024.30
2023-02-19T04:37:52.366Z,1024.32
2023-02-19T04:38:23.280Z,1024.29
2023-02-19T04:38:54.203Z,1024.37
2023-02-19T04:39:25.112Z,1024.36
2023-02-19T04:39:56.033Z,1024.32
2023-02-19T04:40:57.896Z,1024.29
2023-02-19T04:41:28.804Z,1024.35
2023-02-19T04:41:59.735Z,1024.33
2023-02-19T04:42:30.660Z,1024.34
2023-02-19T04:43:01.599Z,1024.36
2023-02-19T04:43:32.526Z,1024.33
2023-02-19T04:44:03.433Z,1024.37
2023-02-19T04:44:34.349Z,1024.39
2023-02-19T04:45:05.298Z,1024.38
2023-02-19T04:45:36.225Z,1024.41
2023-02-19T04:46:07.208Z,1024.45
2023-02-19T04:46:38.140Z,1024.39
2023-02-19T04:47:09.055Z,1024.40
2023-02-19T04:47:39.957Z,1024.42
2023-02-19T04:48:10.838Z,1024.42
2023-02-19T04:48:41.744Z,1024.43
2023-02-19T04:49:12.706Z,1024.40
2023-02-19T04:49:43.642Z,1024.37
2023-02-19T04:50:14.571Z,1024.39
2023-02-19T04:50:45.498Z,1024.34
2023-02-19T04:51:16.444Z,1024.37
2023-02-19T04:51:47.354Z,1024.36
2023-02-19T04:52:18.255Z,1024.33
2023-02-19T04:52:49.193Z,1024.35
2023-02-19T04:53:20.123Z,1024.33
2023-02-19T04:53:51.019Z,1024.31
2023-02-19T04:54:21.925Z,1024.31
2023-02-19T04:54:52.834Z,1024.31
2023-02-19T04:55:23.962Z,1024.31
2023-02-19T04:55:54.429Z,1024.33
2023-02-19T04:56:25.339Z,1024.33
2023-02-19T04:56:56.274Z,1024.35
2023-02-19T04:57:27.197Z,1024.35
2023-02-19T04:57:58.156Z,1024.30
2023-02-19T04:58:29.064Z,1024.35
2023-02-19T04:59:00.011Z,1024.42
2023-02-19T04:59:30.911Z,1024.37
2023-02-19T05:00:01.823Z,1024.38
2023-02-19T05:00:32.769Z,1024.43
2023-02-19T05:01:03.285Z,1024.40
2023-02-19T05:01:34.214Z,1024.42
2023-02-19T05:02:05.145Z,1024.43
2023-02-19T05:02:36.055Z,1024.44
2023-02-19T05:03:06.956Z,1024.45
2023-02-19T05:03:37.917Z,1024.39
2023-02-19T05:04:08.897Z,1024.43
2023-02-19T05:04:39.850Z,1024.44
2023-02-19T05:05:10.771Z,1024.45
2023-02-19T05:05:41.681Z,1024.44
2023-02-19T05:06:12.657Z,1024.50
2023-02-19T05:06:43.548Z,1024.48
2023-02-19T05:07:14.472Z,1024.46
2023-02-19T05:07:45.376Z,1024.50
2023-02-19T05:08:16.313Z,1024.48
2023-02-19T05:08:47.248Z,1024.51
2023-02-19T05:09:18.189Z,1024.50
2023-02-19T05:09:49.118Z,1024.53
2023-02-19T05:10:20.037Z,1024.50
2023-02-19T05:10:50.937Z,1024.47
2023-02-19T05:11:21.856Z,1024.49
2023-02-19T05:11:52.783Z,1024.46
2023-02-19T05:12:23.702Z,1024.48
2023-02-19T05:12:56.808Z,1024.46
2023-02-19T05:13:25.214Z,1024.47
2023-02-19T05:13:56.122Z,1024.49
2023-02-19T05:14:27.054Z,1024.46
2023-02-19T05:14:57.970Z,1024.47
2023-02-19T05:15:28.916Z,1024.49
2023-02-19T05:15:59.959Z,1024.50
2023-02-19T05:16:30.391Z,1024.46
2023-02-19T05:17:01.303Z,1024.47
2023-02-19T05:17:32.193Z,1024.45
2023-02-19T05:18:03.097Z,1024.52
2023-02-19T05:18:33.983Z,1024.51
2023-02-19T05:19:04.865Z,1024.47
2023-02-19T05:19:35.796Z,1024.48
2023-02-19T05:20:06.809Z,1024.50
2023-02-19T05:20:37.713Z,1024.52
2023-02-19T05:21:08.883Z,1024.53
2023-02-19T05:21:39.463Z,1024.54
2023-02-19T05:22:10.394Z,1024.48
2023-02-19T05:22:41.322Z,1024.53
2023-02-19T05:23:12.225Z,1024.54
2023-02-19T05:23:43.177Z,1024.49
2023-02-19T05:24:14.084Z,1024.51
2023-02-19T05:24:45.009Z,1024.55
2023-02-19T05:25:46.853Z,1024.50
2023-02-19T05:26:17.799Z,1024.55
2023-02-19T05:26:48.719Z,1024.56
2023-02-19T05:27:19.631Z,1024.55
2023-02-19T05:27:50.549Z,1024.57
2023-02-19T05:28:21.472Z,1024.54
2023-02-19T05:28:52.403Z,1024.58
2023-02-19T05:29:23.344Z,1024.57
2023-02-19T05:29:54.262Z,1024.57
2023-02-19T05:30:25.301Z,1024.58
2023-02-19T05:30:55.804Z,1024.61
2023-02-19T05:31:26.391Z,1024.60
2023-02-19T05:31:56.868Z,1024.65
2023-02-19T05:32:27.772Z,1024.65
2023-02-19T05:32:58.680Z,1024.66
2023-02-19T05:33:29.616Z,1024.67
2023-02-19T05:34:00.978Z,1024.68
2023-02-19T05:34:31.397Z,1024.67
2023-02-19T05:35:02.313Z,1024.68
2023-02-19T05:35:33.217Z,1024.70
2023-02-19T05:36:04.298Z,1024.70
2023-02-19T05:36:34.734Z,1024.66
2023-02-19T05:37:05.642Z,1024.65
2023-02-19T05:37:36.550Z,1024.67
2023-02-19T05:38:07.463Z,1024.64
2023-02-19T05:38:38.404Z,1024.68
2023-02-19T05:39:09.297Z,1024.67
2023-02-19T05:39:42.624Z,1024.68
2023-02-19T05:40:11.001Z,1024.65
2023-02-19T05:40:41.907Z,1024.68
2023-02-19T05:41:13.141Z,1024.66
2023-02-19T05:41:43.580Z,1024.66
2023-02-19T05:42:14.549Z,1024.64
2023-02-19T05:42:45.470Z,1024.65
2023-02-19T05:43:16.416Z,1024.66
2023-02-19T05:43:47.313Z,1024.65
2023-02-19T05:44:18.256Z,1024.71
2023-02-19T05:44:49.178Z,1024.69
2023-02-19T05:45:20.110Z,1024.71
2023-02-19T05:45:51.024Z,1024.66
2023-02-19T05:46:22.019Z,1024.70
2023-02-19T05:46:52.930Z,1024.71
2023-02-19T05:47:23.866Z,1024.68
2023-02-19T05:47:54.778Z,1024.67
2023-02-19T05:48:25.689Z,1024.73
2023-02-19T05:48:56.624Z,1024.69
2023-02-19T05:49:27.550Z,1024.64
2023-02-19T05:49:58.438Z,1024.66
2023-02-19T05:50:29.370Z,1024.63
2023-02-19T05:51:00.287Z,1024.60
2023-02-19T05:51:31.229Z,1024.62
2023-02-19T05:52:02.155Z,1024.63
2023-02-19T05:52:33.047Z,1024.59
2023-02-19T05:53:03.946Z,1024.61
2023-02-19T05:53:34.878Z,1024.61
2023-02-19T05:54:05.801Z,1024.56
2023-02-19T05:54:36.698Z,1024.57
2023-02-19T05:55:07.628Z,1024.63
2023-02-19T05:55:38.561Z,1024.60
2023-02-19T05:56:09.501Z,1024.59
2023-02-19T05:56:40.448Z,1024.61
2023-02-19T05:57:11.391Z,1024.63
2023-02-19T05:57:43.607Z,1024.63
2023-02-19T05:58:13.229Z,1024.69
2023-02-19T05:58:44.115Z,1024.66
2023-02-19T05:59:15.001Z,1024.66
2023-02-19T05:59:45.862Z,1024.67
2023-02-19T06:00:16.737Z,1024.68
2023-02-19T06:00:47.655Z,1024.73
2023-02-19T06:01:18.557Z,1024.71
2023-02-19T06:01:49.448Z,1024.70
2023-02-19T06:02:20.402Z,1024.73
2023-02-19T06:02:51.331Z,1024.73
2023-02-19T06:03:22.232Z,1024.77
2023-02-19T06:03:56.033Z,1024.74
2023-02-19T06:04:24.026Z,1024.77
2023-02-19T06:04:54.879Z,1024.79
2023-02-19T06:05:25.747Z,1024.85
2023-02-19T06:06:27.484Z,1024.83
2023-02-19T06:06:58.321Z,1024.83
2023-02-19T06:07:29.188Z,1024.86
2023-02-19T06:08:00.104Z,1024.89
2023-02-19T06:08:30.943Z,1024.91
2023-02-19T06:09:01.800Z,1024.86
2023-02-19T06:09:32.708Z,1024.91
2023-02-19T06:10:03.585Z,1024.90
2023-02-19T06:10:34.437Z,1024.91
2023-02-19T06:11:05.308Z,1024.97
2023-02-19T06:11:36.154Z,1024.95
2023-02-19T06:12:07.025Z,1024.99
2023-02-19T06:12:37.918Z,1024.99
2023-02-19T06:13:08.786Z,1025.00
2023-02-19T06:13:39.652Z,1025.02
2023-02-19T06:14:10.518Z,1024.97
2023-02-19T06:14:41.387Z,1025.03
2023-02-19T06:15:12.369Z,1025.02
2023-02-19T06:15:43.246Z,1025.06
2023-02-19T06:16:14.180Z,1025.04
2023-02-19T06:16:45.073Z,1025.09
2023-02-19T06:17:15.927Z,1025.09
2023-02-19T06:17:46.816Z,1025.06
2023-02-19T06:18:17.726Z,1025.10
2023-02-19T06:18:48.606Z,1025.10
2023-02-19T06:19:19.481Z,1025.08